sensor_id;sensor_type;location;lat;lon;timestamp;pressure;altitude;pressure_sealevel;temperature
66403;BMP180;53212;52.112;5.144;2022-10-17T00:01:13;101564.40;;;14.30
66403;BMP180;53212;52.112;5.144;2022-10-17T00:03:39;101562.80;;;14.30
66403;BMP180;53212;52.112;5.144;2022-10-17T00:06:11;101559.80;;;14.30
66403;BMP180;53212;52.112;5.144;2022-10-17T00:08:39;101562.00;;;14.20
66403;BMP180;53212;52.112;5.144;2022-10-17T00:11:21;101560.40;;;14.20
66403;BMP180;53212;52.112;5.144;2022-10-17T00:13:49;101551.40;;;14.20
66403;BMP180;53212;52.112;5.144;2022-10-17T00:16:24;101552.00;;;14.20
66403;BMP180;53212;52.112;5.144;2022-10-17T00:18:50;101544.00;;;14.20
66403;BMP180;53212;52.112;5.144;2022-10-17T00:21:17;101546.20;;;14.10
66403;BMP180;53212;52.112;5.144;2022-10-17T00:23:44;101546.80;;;14.10
66403;BMP180;53212;52.112;5.144;2022-10-17T00:26:09;101545.00;;;14.10
66403;BMP180;53212;52.112;5.144;2022-10-17T00:28:35;101539.20;;;14.10
66403;BMP180;53212;52.112;5.144;2022-10-17T00:31:04;101544.00;;;14.10
66403;BMP180;53212;52.112;5.144;2022-10-17T00:33:31;101542.20;;;14.06
66403;BMP180;53212;52.112;5.144;2022-10-17T00:36:07;101541.00;;;14.10
66403;BMP180;53212;52.112;5.144;2022-10-17T00:38:34;101535.00;;;14.10
66403;BMP180;53212;52.112;5.144;2022-10-17T00:40:59;101537.00;;;14.10
66403;BMP180;53212;52.112;5.144;2022-10-17T00:43:25;101533.20;;;14.08
66403;BMP180;53212;52.112;5.144;2022-10-17T00:45:51;101533.60;;;14.04
66403;BMP180;53212;52.112;5.144;2022-10-17T00:48:17;101534.60;;;14.00
66403;BMP180;53212;52.112;5.144;2022-10-17T00:50:45;101537.60;;;14.00
66403;BMP180;53212;52.112;5.144;2022-10-17T00:53:12;101530.20;;;14.00
66403;BMP180;53212;52.112;5.144;2022-10-17T00:55:48;101528.40;;;14.00
66403;BMP180;53212;52.112;5.144;2022-10-17T00:58:15;101529.40;;;14.00
66403;BMP180;53212;52.112;5.144;2022-10-17T01:00:42;101525.80;;;14.00
66403;BMP180;53212;52.112;5.144;2022-10-17T01:03:07;101521.00;;;14.00
66403;BMP180;53212;52.112;5.144;2022-10-17T01:05:33;101518.40;;;14.00
66403;BMP180;53212;52.112;5.144;2022-10-17T01:07:59;101519.00;;;14.08
66403;BMP180;53212;52.112;5.144;2022-10-17T01:13:29;101510.40;;;14.10
66403;BMP180;53212;52.112;5.144;2022-10-17T01:16:10;101509.20;;;14.10
66403;BMP180;53212;52.112;5.144;2022-10-17T01:19:12;101508.20;;;14.10
66403;BMP180;53212;52.112;5.144;2022-10-17T01:22:19;101506.20;;;14.10
66403;BMP180;53212;52.112;5.144;2022-10-17T01:25:26;101505.20;;;14.10
66403;BMP180;53212;52.112;5.144;2022-10-17T01:31:19;101496.80;;;14.10
66403;BMP180;53212;52.112;5.144;2022-10-17T01:34:09;101498.00;;;14.10
66403;BMP180;53212;52.112;5.144;2022-10-17T01:36:56;101497.20;;;14.10
66403;BMP180;53212;52.112;5.144;2022-10-17T01:39:41;101496.00;;;14.10
66403;BMP180;53212;52.112;5.144;2022-10-17T01:42:40;101501.40;;;14.10
66403;BMP180;53212;52.112;5.144;2022-10-17T01:45:24;101497.20;;;14.10
66403;BMP180;53212;52.112;5.144;2022-10-17T01:47:52;101495.60;;;14.10
66403;BMP180;53212;52.112;5.144;2022-10-17T01:50:37;101495.80;;;14.10
66403;BMP180;53212;52.112;5.144;2022-10-17T01:53:15;101488.20;;;14.10
66403;BMP180;53212;52.112;5.144;2022-10-17T01:55:45;101476.00;;;14.10
66403;BMP180;53212;52.112;5.144;2022-10-17T01:58:20;101467.20;;;14.10
66403;BMP180;53212;52.112;5.144;2022-10-17T02:00:47;101453.40;;;14.10
66403;BMP180;53212;52.112;5.144;2022-10-17T02:03:18;101451.40;;;14.10
66403;BMP180;53212;52.112;5.144;2022-10-17T02:05:44;101455.80;;;14.10
66403;BMP180;53212;52.112;5.144;2022-10-17T02:08:11;101457.00;;;14.10
66403;BMP180;53212;52.112;5.144;2022-10-17T02:10:51;101456.60;;;14.18
66403;BMP180;53212;52.112;5.144;2022-10-17T02:16:36;101446.00;;;14.20
66403;BMP180;53212;52.112;5.144;2022-10-17T02:22:29;101459.80;;;14.20
66403;BMP180;53212;52.112;5.144;2022-10-17T02:27:47;101451.60;;;14.30
66403;BMP180;53212;52.112;5.144;2022-10-17T02:33:37;101442.80;;;14.30
66403;BMP180;53212;52.112;5.144;2022-10-17T02:36:09;101438.00;;;14.30
66403;BMP180;53212;52.112;5.144;2022-10-17T02:38:37;101436.40;;;14.30
66403;BMP180;53212;52.112;5.144;2022-10-17T02:41:05;101437.60;;;14.30
66403;BMP180;53212;52.112;5.144;2022-10-17T02:43:33;101437.80;;;14.30
66403;BMP180;53212;52.112;5.144;2022-10-17T02:45:59;101432.20;;;14.30
66403;BMP180;53212;52.112;5.144;2022-10-17T02:48:35;101427.60;;;14.30
66403;BMP180;53212;52.112;5.144;2022-10-17T02:57:38;101442.00;;;14.32
66403;BMP180;53212;52.112;5.144;2022-10-17T03:00:09;101444.80;;;14.36
66403;BMP180;53212;52.112;5.144;2022-10-17T03:02:53;101449.20;;;14.40
66403;BMP180;53212;52.112;5.144;2022-10-17T03:05:28;101441.00;;;14.36
66403;BMP180;53212;52.112;5.144;2022-10-17T03:07:55;101441.40;;;14.32
66403;BMP180;53212;52.112;5.144;2022-10-17T03:10:21;101446.60;;;14.34
66403;BMP180;53212;52.112;5.144;2022-10-17T03:12:47;101449.40;;;14.34
66403;BMP180;53212;52.112;5.144;2022-10-17T03:15:13;101442.00;;;14.40
66403;BMP180;53212;52.112;5.144;2022-10-17T03:17:39;101441.40;;;14.40
66403;BMP180;53212;52.112;5.144;2022-10-17T03:20:06;101439.80;;;14.40
66403;BMP180;53212;52.112;5.144;2022-10-17T03:22:32;101442.60;;;14.40
66403;BMP180;53212;52.112;5.144;2022-10-17T03:24:57;101449.20;;;14.44
66403;BMP180;53212;52.112;5.144;2022-10-17T03:27:23;101450.60;;;14.50
66403;BMP180;53212;52.112;5.144;2022-10-17T03:29:48;101453.20;;;14.50
66403;BMP180;53212;52.112;5.144;2022-10-17T03:32:13;101454.80;;;14.50
66403;BMP180;53212;52.112;5.144;2022-10-17T03:34:39;101460.40;;;14.60
66403;BMP180;53212;52.112;5.144;2022-10-17T03:37:04;101466.80;;;14.60
66403;BMP180;53212;52.112;5.144;2022-10-17T03:39:29;101474.00;;;14.60
66403;BMP180;53212;52.112;5.144;2022-10-17T03:41:55;101470.00;;;14.70
66403;BMP180;53212;52.112;5.144;2022-10-17T03:44:20;101470.20;;;14.70
66403;BMP180;53212;52.112;5.144;2022-10-17T03:46:46;101466.20;;;14.80
66403;BMP180;53212;52.112;5.144;2022-10-17T03:49:11;101462.80;;;14.80
66403;BMP180;53212;52.112;5.144;2022-10-17T03:51:37;101464.20;;;14.80
66403;BMP180;53212;52.112;5.144;2022-10-17T03:54:02;101459.40;;;14.80
66403;BMP180;53212;52.112;5.144;2022-10-17T03:56:28;101456.80;;;14.80
66403;BMP180;53212;52.112;5.144;2022-10-17T03:58:54;101460.20;;;14.80
66403;BMP180;53212;52.112;5.144;2022-10-17T04:01:21;101463.80;;;14.80
66403;BMP180;53212;52.112;5.144;2022-10-17T04:03:52;101457.00;;;14.80
66403;BMP180;53212;52.112;5.144;2022-10-17T04:06:19;101457.60;;;14.80
66403;BMP180;53212;52.112;5.144;2022-10-17T04:08:45;101461.20;;;14.80
66403;BMP180;53212;52.112;5.144;2022-10-17T04:11:15;101459.60;;;14.80
66403;BMP180;53212;52.112;5.144;2022-10-17T04:13:41;101448.60;;;14.80
66403;BMP180;53212;52.112;5.144;2022-10-17T04:16:12;101454.00;;;14.80
66403;BMP180;53212;52.112;5.144;2022-10-17T04:18:37;101464.40;;;14.80
66403;BMP180;53212;52.112;5.144;2022-10-17T04:21:04;101479.80;;;14.80
66403;BMP180;53212;52.112;5.144;2022-10-17T04:23:30;101476.60;;;14.80
66403;BMP180;53212;52.112;5.144;2022-10-17T04:25:59;101469.00;;;14.80
66403;BMP180;53212;52.112;5.144;2022-10-17T04:28:26;101461.20;;;14.80
66403;BMP180;53212;52.112;5.144;2022-10-17T04:31:10;101469.00;;;14.80
66403;BMP180;53212;52.112;5.144;2022-10-17T04:33:36;101469.20;;;14.80
66403;BMP180;53212;52.112;5.144;2022-10-17T04:36:16;101471.00;;;14.80
66403;BMP180;53212;52.112;5.144;2022-10-17T04:38:41;101480.40;;;14.86
66403;BMP180;53212;52.112;5.144;2022-10-17T04:41:11;101478.60;;;14.90
66403;BMP180;53212;52.112;5.144;2022-10-17T04:43:38;101490.60;;;14.90
66403;BMP180;53212;52.112;5.144;2022-10-17T04:46:08;101485.40;;;14.90
66403;BMP180;53212;52.112;5.144;2022-10-17T04:48:34;101492.00;;;15.00
66403;BMP180;53212;52.112;5.144;2022-10-17T04:51:03;101487.00;;;15.00
66403;BMP180;53212;52.112;5.144;2022-10-17T04:53:35;101491.60;;;15.00
66403;BMP180;53212;52.112;5.144;2022-10-17T04:56:07;101494.00;;;15.00
66403;BMP180;53212;52.112;5.144;2022-10-17T04:58:33;101493.40;;;15.06
66403;BMP180;53212;52.112;5.144;2022-10-17T05:00:58;101498.00;;;15.08
66403;BMP180;53212;52.112;5.144;2022-10-17T05:03:23;101502.80;;;15.10
66403;BMP180;53212;52.112;5.144;2022-10-17T05:05:49;101500.20;;;15.10
66403;BMP180;53212;52.112;5.144;2022-10-17T05:08:14;101502.40;;;15.10
66403;BMP180;53212;52.112;5.144;2022-10-17T05:10:42;101498.40;;;15.10
66403;BMP180;53212;52.112;5.144;2022-10-17T05:13:09;101498.80;;;15.10
66403;BMP180;53212;52.112;5.144;2022-10-17T05:15:36;101491.20;;;15.10
66403;BMP180;53212;52.112;5.144;2022-10-17T05:18:03;101501.20;;;15.10
66403;BMP180;53212;52.112;5.144;2022-10-17T05:20:28;101495.60;;;15.10
66403;BMP180;53212;52.112;5.144;2022-10-17T05:22:54;101499.40;;;15.20
66403;BMP180;53212;52.112;5.144;2022-10-17T05:25:19;101488.00;;;15.20
66403;BMP180;53212;52.112;5.144;2022-10-17T05:27:45;101494.40;;;15.20
66403;BMP180;53212;52.112;5.144;2022-10-17T05:30:11;101499.00;;;15.20
66403;BMP180;53212;52.112;5.144;2022-10-17T05:32:36;101507.40;;;15.20
66403;BMP180;53212;52.112;5.144;2022-10-17T05:35:02;101513.00;;;15.24
66403;BMP180;53212;52.112;5.144;2022-10-17T05:37:30;101516.80;;;15.24
66403;BMP180;53212;52.112;5.144;2022-10-17T05:39:56;101523.80;;;15.30
66403;BMP180;53212;52.112;5.144;2022-10-17T05:42:22;101530.00;;;15.30
66403;BMP180;53212;52.112;5.144;2022-10-17T05:44:48;101522.80;;;15.30
66403;BMP180;53212;52.112;5.144;2022-10-17T05:47:13;101521.40;;;15.30
66403;BMP180;53212;52.112;5.144;2022-10-17T05:49:39;101507.80;;;15.30
66403;BMP180;53212;52.112;5.144;2022-10-17T05:52:04;101507.00;;;15.34
66403;BMP180;53212;52.112;5.144;2022-10-17T05:54:30;101502.80;;;15.38
66403;BMP180;53212;52.112;5.144;2022-10-17T05:56:56;101498.60;;;15.40
66403;BMP180;53212;52.112;5.144;2022-10-17T05:59:26;101504.00;;;15.40
66403;BMP180;53212;52.112;5.144;2022-10-17T06:01:52;101503.40;;;15.40
66403;BMP180;53212;52.112;5.144;2022-10-17T06:04:18;101514.40;;;15.40
66403;BMP180;53212;52.112;5.144;2022-10-17T06:06:43;101520.20;;;15.40
66403;BMP180;53212;52.112;5.144;2022-10-17T06:09:09;101515.60;;;15.40
66403;BMP180;53212;52.112;5.144;2022-10-17T06:11:35;101517.80;;;15.40
66403;BMP180;53212;52.112;5.144;2022-10-17T06:14:01;101518.80;;;15.34
66403;BMP180;53212;52.112;5.144;2022-10-17T06:16:26;101513.60;;;15.32
66403;BMP180;53212;52.112;5.144;2022-10-17T06:18:52;101513.60;;;15.30
66403;BMP180;53212;52.112;5.144;2022-10-17T06:21:23;101518.40;;;15.30
66403;BMP180;53212;52.112;5.144;2022-10-17T06:23:48;101518.60;;;15.30
66403;BMP180;53212;52.112;5.144;2022-10-17T06:26:14;101536.20;;;15.40
66403;BMP180;53212;52.112;5.144;2022-10-17T06:28:39;101535.40;;;15.40
66403;BMP180;53212;52.112;5.144;2022-10-17T06:31:12;101538.20;;;15.40
66403;BMP180;53212;52.112;5.144;2022-10-17T06:33:38;101539.80;;;15.40
66403;BMP180;53212;52.112;5.144;2022-10-17T06:36:05;101543.20;;;15.48
66403;BMP180;53212;52.112;5.144;2022-10-17T06:38:33;101534.40;;;15.50
66403;BMP180;53212;52.112;5.144;2022-10-17T06:41:11;101544.00;;;15.50
66403;BMP180;53212;52.112;5.144;2022-10-17T06:43:39;101550.80;;;15.60
66403;BMP180;53212;52.112;5.144;2022-10-17T06:46:05;101563.80;;;15.60
66403;BMP180;53212;52.112;5.144;2022-10-17T06:48:31;101559.20;;;15.60
66403;BMP180;53212;52.112;5.144;2022-10-17T06:51:00;101572.20;;;15.70
66403;BMP180;53212;52.112;5.144;2022-10-17T06:53:32;101574.40;;;15.70
66403;BMP180;53212;52.112;5.144;2022-10-17T06:55:58;101578.00;;;15.72
66403;BMP180;53212;52.112;5.144;2022-10-17T06:58:33;101578.40;;;15.80
66403;BMP180;53212;52.112;5.144;2022-10-17T07:01:02;101588.20;;;15.80
66403;BMP180;53212;52.112;5.144;2022-10-17T07:03:28;101588.20;;;15.80
66403;BMP180;53212;52.112;5.144;2022-10-17T07:05:54;101593.20;;;15.88
66403;BMP180;53212;52.112;5.144;2022-10-17T07:08:20;101589.60;;;15.90
66403;BMP180;53212;52.112;5.144;2022-10-17T07:10:46;101591.00;;;15.90
66403;BMP180;53212;52.112;5.144;2022-10-17T07:13:12;101595.20;;;15.90
66403;BMP180;53212;52.112;5.144;2022-10-17T07:15:38;101595.20;;;15.98
66403;BMP180;53212;52.112;5.144;2022-10-17T07:18:04;101595.20;;;16.00
66403;BMP180;53212;52.112;5.144;2022-10-17T07:20:30;101591.00;;;16.00
66403;BMP180;53212;52.112;5.144;2022-10-17T07:22:56;101599.20;;;16.00
66403;BMP180;53212;52.112;5.144;2022-10-17T07:25:21;101599.20;;;16.00
66403;BMP180;53212;52.112;5.144;2022-10-17T07:27:51;101601.40;;;16.10
66403;BMP180;53212;52.112;5.144;2022-10-17T07:30:17;101604.00;;;16.10
66403;BMP180;53212;52.112;5.144;2022-10-17T07:32:43;101602.60;;;16.10
66403;BMP180;53212;52.112;5.144;2022-10-17T07:35:10;101614.40;;;16.10
66403;BMP180;53212;52.112;5.144;2022-10-17T07:37:36;101630.00;;;16.12
66403;BMP180;53212;52.112;5.144;2022-10-17T07:40:02;101646.60;;;16.10
66403;BMP180;53212;52.112;5.144;2022-10-17T07:42:28;101640.60;;;16.20
66403;BMP180;53212;52.112;5.144;2022-10-17T07:44:54;101638.60;;;16.20
66403;BMP180;53212;52.112;5.144;2022-10-17T07:47:20;101657.80;;;16.20
66403;BMP180;53212;52.112;5.144;2022-10-17T07:49:46;101678.60;;;16.30
66403;BMP180;53212;52.112;5.144;2022-10-17T07:52:13;101699.60;;;16.30
66403;BMP180;53212;52.112;5.144;2022-10-17T07:54:39;101708.40;;;16.40
66403;BMP180;53212;52.112;5.144;2022-10-17T07:57:05;101720.80;;;16.50
66403;BMP180;53212;52.112;5.144;2022-10-17T07:59:35;101738.80;;;16.50
66403;BMP180;53212;52.112;5.144;2022-10-17T08:02:01;101759.60;;;16.50
66403;BMP180;53212;52.112;5.144;2022-10-17T08:04:27;101765.80;;;16.50
66403;BMP180;53212;52.112;5.144;2022-10-17T08:06:53;101768.80;;;16.50
66403;BMP180;53212;52.112;5.144;2022-10-17T08:09:18;101783.80;;;16.50
66403;BMP180;53212;52.112;5.144;2022-10-17T08:11:44;101782.00;;;16.50
66403;BMP180;53212;52.112;5.144;2022-10-17T08:14:13;101789.60;;;16.48
66403;BMP180;53212;52.112;5.144;2022-10-17T08:16:41;101783.60;;;16.40
66403;BMP180;53212;52.112;5.144;2022-10-17T08:19:07;101774.20;;;16.40
66403;BMP180;53212;52.112;5.144;2022-10-17T08:21:37;101768.40;;;16.40
66403;BMP180;53212;52.112;5.144;2022-10-17T08:24:03;101754.20;;;16.40
66403;BMP180;53212;52.112;5.144;2022-10-17T08:26:29;101734.80;;;16.40
66403;BMP180;53212;52.112;5.144;2022-10-17T08:28:55;101732.80;;;16.40
66403;BMP180;53212;52.112;5.144;2022-10-17T08:31:21;101739.60;;;16.40
66403;BMP180;53212;52.112;5.144;2022-10-17T08:33:48;101741.40;;;16.40
66403;BMP180;53212;52.112;5.144;2022-10-17T08:36:17;101770.40;;;16.40
66403;BMP180;53212;52.112;5.144;2022-10-17T08:38:44;101773.20;;;16.40
66403;BMP180;53212;52.112;5.144;2022-10-17T08:41:39;101785.80;;;16.40
66403;BMP180;53212;52.112;5.144;2022-10-17T08:47:38;101801.00;;;16.40
66403;BMP180;53212;52.112;5.144;2022-10-17T08:50:11;101798.60;;;16.40
66403;BMP180;53212;52.112;5.144;2022-10-17T08:52:51;101791.80;;;16.40
66403;BMP180;53212;52.112;5.144;2022-10-17T08:55:31;101783.40;;;16.40
66403;BMP180;53212;52.112;5.144;2022-10-17T08:57:57;101769.80;;;16.40
66403;BMP180;53212;52.112;5.144;2022-10-17T09:00:24;101758.20;;;16.40
66403;BMP180;53212;52.112;5.144;2022-10-17T09:06:20;101737.60;;;16.50
66403;BMP180;53212;52.112;5.144;2022-10-17T09:11:57;101734.40;;;16.70
66403;BMP180;53212;52.112;5.144;2022-10-17T09:15:02;101740.40;;;16.80
66403;BMP180;53212;52.112;5.144;2022-10-17T09:17:59;101758.20;;;16.90
66403;BMP180;53212;52.112;5.144;2022-10-17T09:20:32;101789.40;;;16.98
66403;BMP180;53212;52.112;5.144;2022-10-17T09:23:21;101807.00;;;17.00
66403;BMP180;53212;52.112;5.144;2022-10-17T09:25:53;101812.40;;;17.00
66403;BMP180;53212;52.112;5.144;2022-10-17T09:28:38;101813.80;;;17.10
66403;BMP180;53212;52.112;5.144;2022-10-17T09:31:18;101820.00;;;17.10
66403;BMP180;53212;52.112;5.144;2022-10-17T09:33:46;101789.20;;;17.10
66403;BMP180;53212;52.112;5.144;2022-10-17T09:36:28;101786.40;;;17.10
66403;BMP180;53212;52.112;5.144;2022-10-17T09:38:57;101781.80;;;17.00
66403;BMP180;53212;52.112;5.144;2022-10-17T09:41:33;101768.60;;;17.02
66403;BMP180;53212;52.112;5.144;2022-10-17T09:44:28;101754.20;;;17.10
66403;BMP180;53212;52.112;5.144;2022-10-17T09:49:46;101765.60;;;17.40
66403;BMP180;53212;52.112;5.144;2022-10-17T09:55:04;101775.60;;;17.60
66403;BMP180;53212;52.112;5.144;2022-10-17T09:57:56;101788.60;;;17.60
66403;BMP180;53212;52.112;5.144;2022-10-17T10:00:30;101800.40;;;17.60
66403;BMP180;53212;52.112;5.144;2022-10-17T10:05:39;101813.80;;;17.50
66403;BMP180;53212;52.112;5.144;2022-10-17T10:08:14;101815.60;;;17.40
66403;BMP180;53212;52.112;5.144;2022-10-17T10:10:41;101837.20;;;17.50
66403;BMP180;53212;52.112;5.144;2022-10-17T10:15:49;101854.80;;;17.50
66403;BMP180;53212;52.112;5.144;2022-10-17T10:21:15;101878.00;;;17.50
66403;BMP180;53212;52.112;5.144;2022-10-17T10:23:43;101892.80;;;17.42
66403;BMP180;53212;52.112;5.144;2022-10-17T10:26:22;101890.40;;;17.40
66403;BMP180;53212;52.112;5.144;2022-10-17T10:29:04;101892.00;;;17.48
66403;BMP180;53212;52.112;5.144;2022-10-17T10:31:34;101896.80;;;17.50
66403;BMP180;53212;52.112;5.144;2022-10-17T10:34:23;101898.20;;;17.50
66403;BMP180;53212;52.112;5.144;2022-10-17T10:37:21;101893.00;;;17.50
66403;BMP180;53212;52.112;5.144;2022-10-17T10:39:51;101896.00;;;17.60
66403;BMP180;53212;52.112;5.144;2022-10-17T10:42:31;101897.60;;;17.60
66403;BMP180;53212;52.112;5.144;2022-10-17T10:47:38;101905.40;;;17.60
66403;BMP180;53212;52.112;5.144;2022-10-17T10:50:35;101906.80;;;17.60
66403;BMP180;53212;52.112;5.144;2022-10-17T10:53:37;101919.80;;;17.60
66403;BMP180;53212;52.112;5.144;2022-10-17T10:59:02;101929.60;;;17.40
66403;BMP180;53212;52.112;5.144;2022-10-17T11:01:56;101925.80;;;17.28
66403;BMP180;53212;52.112;5.144;2022-10-17T11:04:39;101934.60;;;17.20
66403;BMP180;53212;52.112;5.144;2022-10-17T11:14:55;101931.00;;;17.28
66403;BMP180;53212;52.112;5.144;2022-10-17T11:17:51;101943.40;;;17.40
66403;BMP180;53212;52.112;5.144;2022-10-17T11:20:31;101946.60;;;17.50
66403;BMP180;53212;52.112;5.144;2022-10-17T11:23:13;101954.20;;;17.60
66403;BMP180;53212;52.112;5.144;2022-10-17T11:25:44;101958.20;;;17.70
66403;BMP180;53212;52.112;5.144;2022-10-17T11:28:17;101959.80;;;17.70
66403;BMP180;53212;52.112;5.144;2022-10-17T11:31:12;101964.80;;;17.70
66403;BMP180;53212;52.112;5.144;2022-10-17T11:36:19;101975.60;;;17.70
66403;BMP180;53212;52.112;5.144;2022-10-17T11:39:02;101980.20;;;17.70
66403;BMP180;53212;52.112;5.144;2022-10-17T11:42:11;101976.60;;;17.62
66403;BMP180;53212;52.112;5.144;2022-10-17T11:44:40;101979.60;;;17.60
66403;BMP180;53212;52.112;5.144;2022-10-17T11:50:15;101978.00;;;17.58
66403;BMP180;53212;52.112;5.144;2022-10-17T11:55:26;101983.20;;;17.50
66403;BMP180;53212;52.112;5.144;2022-10-17T11:58:24;101993.60;;;17.40
66403;BMP180;53212;52.112;5.144;2022-10-17T12:01:20;101987.60;;;17.40
66403;BMP180;53212;52.112;5.144;2022-10-17T12:04:28;101991.60;;;17.40
66403;BMP180;53212;52.112;5.144;2022-10-17T12:07:07;101994.40;;;17.40
66403;BMP180;53212;52.112;5.144;2022-10-17T12:09:56;101991.60;;;17.40
66403;BMP180;53212;52.112;5.144;2022-10-17T12:12:28;101995.20;;;17.40
66403;BMP180;53212;52.112;5.144;2022-10-17T12:18:02;101994.80;;;17.20
66403;BMP180;53212;52.112;5.144;2022-10-17T12:20:34;102004.20;;;17.30
66403;BMP180;53212;52.112;5.144;2022-10-17T12:31:21;102009.20;;;17.10
66403;BMP180;53212;52.112;5.144;2022-10-17T12:34:00;102013.00;;;17.00
66403;BMP180;53212;52.112;5.144;2022-10-17T12:49:49;102031.80;;;16.76
66403;BMP180;53212;52.112;5.144;2022-10-17T12:57:59;102038.40;;;16.80
66403;BMP180;53212;52.112;5.144;2022-10-17T13:03:13;102045.00;;;16.90
66403;BMP180;53212;52.112;5.144;2022-10-17T13:05:46;102037.20;;;17.04
66403;BMP180;53212;52.112;5.144;2022-10-17T13:08:29;102035.60;;;17.20
66403;BMP180;53212;52.112;5.144;2022-10-17T13:10:56;102041.40;;;17.40
66403;BMP180;53212;52.112;5.144;2022-10-17T13:13:51;102043.80;;;17.60
66403;BMP180;53212;52.112;5.144;2022-10-17T13:18:53;102051.40;;;17.96
66403;BMP180;53212;52.112;5.144;2022-10-17T13:21:19;102054.20;;;18.08
66403;BMP180;53212;52.112;5.144;2022-10-17T13:23:45;102061.80;;;18.10
66403;BMP180;53212;52.112;5.144;2022-10-17T13:26:17;102071.20;;;18.20
66403;BMP180;53212;52.112;5.144;2022-10-17T13:29:13;102077.60;;;18.10
66403;BMP180;53212;52.112;5.144;2022-10-17T13:31:43;102078.00;;;18.10
66403;BMP180;53212;52.112;5.144;2022-10-17T13:34:35;102082.80;;;18.02
66403;BMP180;53212;52.112;5.144;2022-10-17T13:37:06;102087.60;;;18.00
66403;BMP180;53212;52.112;5.144;2022-10-17T13:39:45;102093.40;;;18.00
66403;BMP180;53212;52.112;5.144;2022-10-17T13:42:30;102100.00;;;18.00
66403;BMP180;53212;52.112;5.144;2022-10-17T13:45:00;102105.60;;;18.00
66403;BMP180;53212;52.112;5.144;2022-10-17T13:47:34;102104.80;;;18.00
66403;BMP180;53212;52.112;5.144;2022-10-17T13:50:01;102108.60;;;18.06
66403;BMP180;53212;52.112;5.144;2022-10-17T13:52:28;102107.00;;;18.02
66403;BMP180;53212;52.112;5.144;2022-10-17T13:54:55;102116.40;;;18.10
66403;BMP180;53212;52.112;5.144;2022-10-17T13:57:30;102119.40;;;18.10
66403;BMP180;53212;52.112;5.144;2022-10-17T13:59:59;102115.00;;;18.14
66403;BMP180;53212;52.112;5.144;2022-10-17T14:02:29;102114.00;;;18.20
66403;BMP180;53212;52.112;5.144;2022-10-17T14:05:11;102109.40;;;18.30
66403;BMP180;53212;52.112;5.144;2022-10-17T14:08:03;102108.20;;;18.40
66403;BMP180;53212;52.112;5.144;2022-10-17T14:10:34;102109.00;;;18.50
66403;BMP180;53212;52.112;5.144;2022-10-17T14:13:02;102111.00;;;18.50
66403;BMP180;53212;52.112;5.144;2022-10-17T14:15:31;102101.40;;;18.60
66403;BMP180;53212;52.112;5.144;2022-10-17T14:18:08;102101.40;;;18.70
66403;BMP180;53212;52.112;5.144;2022-10-17T14:20:38;102097.40;;;18.80
66403;BMP180;53212;52.112;5.144;2022-10-17T14:23:42;102097.40;;;18.88
66403;BMP180;53212;52.112;5.144;2022-10-17T14:26:21;102098.20;;;18.90
66403;BMP180;53212;52.112;5.144;2022-10-17T14:29:04;102102.60;;;19.00
66403;BMP180;53212;52.112;5.144;2022-10-17T14:31:34;102106.80;;;19.10
66403;BMP180;53212;52.112;5.144;2022-10-17T14:34:03;102103.80;;;19.20
66403;BMP180;53212;52.112;5.144;2022-10-17T14:36:38;102104.20;;;19.30
66403;BMP180;53212;52.112;5.144;2022-10-17T14:39:07;102112.60;;;19.30
66403;BMP180;53212;52.112;5.144;2022-10-17T14:41:35;102113.80;;;19.40
66403;BMP180;53212;52.112;5.144;2022-10-17T14:44:07;102114.80;;;19.30
66403;BMP180;53212;52.112;5.144;2022-10-17T14:46:44;102120.40;;;19.30
66403;BMP180;53212;52.112;5.144;2022-10-17T14:49:22;102125.00;;;19.10
66403;BMP180;53212;52.112;5.144;2022-10-17T14:52:22;102134.60;;;19.00
66403;BMP180;53212;52.112;5.144;2022-10-17T14:54:49;102140.60;;;18.84
66403;BMP180;53212;52.112;5.144;2022-10-17T14:59:58;102134.80;;;18.50
66403;BMP180;53212;52.112;5.144;2022-10-17T15:02:27;102133.20;;;18.40
66403;BMP180;53212;52.112;5.144;2022-10-17T15:04:53;102139.80;;;18.40
66403;BMP180;53212;52.112;5.144;2022-10-17T15:07:20;102143.00;;;18.40
66403;BMP180;53212;52.112;5.144;2022-10-17T15:09:49;102144.40;;;18.40
66403;BMP180;53212;52.112;5.144;2022-10-17T15:12:18;102150.20;;;18.42
66403;BMP180;53212;52.112;5.144;2022-10-17T15:14:44;102147.60;;;18.50
66403;BMP180;53212;52.112;5.144;2022-10-17T15:17:18;102157.20;;;18.50
66403;BMP180;53212;52.112;5.144;2022-10-17T15:19:46;102153.40;;;18.50
66403;BMP180;53212;52.112;5.144;2022-10-17T15:22:11;102164.40;;;18.50
66403;BMP180;53212;52.112;5.144;2022-10-17T15:24:37;102164.60;;;18.48
66403;BMP180;53212;52.112;5.144;2022-10-17T15:27:06;102166.80;;;18.40
66403;BMP180;53212;52.112;5.144;2022-10-17T15:29:31;102171.60;;;18.40
66403;BMP180;53212;52.112;5.144;2022-10-17T15:31:56;102178.80;;;18.30
66403;BMP180;53212;52.112;5.144;2022-10-17T15:34:22;102174.00;;;18.20
66403;BMP180;53212;52.112;5.144;2022-10-17T15:36:51;102178.60;;;18.08
66403;BMP180;53212;52.112;5.144;2022-10-17T15:39:18;102186.20;;;17.90
66403;BMP180;53212;52.112;5.144;2022-10-17T15:41:43;102194.80;;;17.90
66403;BMP180;53212;52.112;5.144;2022-10-17T15:44:09;102194.40;;;17.90
66403;BMP180;53212;52.112;5.144;2022-10-17T15:46:35;102188.40;;;17.80
66403;BMP180;53212;52.112;5.144;2022-10-17T15:49:06;102189.00;;;17.80
66403;BMP180;53212;52.112;5.144;2022-10-17T15:51:32;102195.20;;;17.90
66403;BMP180;53212;52.112;5.144;2022-10-17T15:53:58;102193.60;;;17.90
66403;BMP180;53212;52.112;5.144;2022-10-17T15:56:29;102198.20;;;17.98
66403;BMP180;53212;52.112;5.144;2022-10-17T15:58:56;102206.00;;;18.00
66403;BMP180;53212;52.112;5.144;2022-10-17T16:01:28;102209.60;;;18.08
66403;BMP180;53212;52.112;5.144;2022-10-17T16:03:55;102215.00;;;18.00
66403;BMP180;53212;52.112;5.144;2022-10-17T16:06:21;102216.20;;;18.06
66403;BMP180;53212;52.112;5.144;2022-10-17T16:08:48;102220.80;;;18.00
66403;BMP180;53212;52.112;5.144;2022-10-17T16:11:38;102221.40;;;18.00